createdAt,value
2018-09-11T00:00:23.564Z,12.43
2018-09-11T00:02:52.633Z,12.49
2018-09-11T00:05:22.017Z,12.53
2018-09-11T00:07:51.483Z,12.37
2018-09-11T00:10:20.764Z,12.28
2018-09-11T00:12:50.195Z,12.46
2018-09-11T00:15:20.209Z,12.48
2018-09-11T00:17:49.560Z,12.42
2018-09-11T00:20:18.829Z,12.47
2018-09-11T00:22:48.182Z,12.49
2018-09-11T00:25:17.522Z,12.44
2018-09-11T00:27:46.852Z,12.36
2018-09-11T00:30:16.095Z,12.36
2018-09-11T00:32:46.311Z,12.32
2018-09-11T00:35:15.557Z,12.35
2018-09-11T00:37:44.930Z,12.29
2018-09-11T00:40:14.259Z,12.30
2018-09-11T00:42:44.261Z,12.24
2018-09-11T00:45:13.638Z,12.39
2018-09-11T00:47:42.857Z,12.19
2018-09-11T00:50:12.335Z,12.29
2018-09-11T00:52:41.682Z,12.29
2018-09-11T00:55:11.096Z,12.26
2018-09-11T00:57:40.549Z,12.25
2018-09-11T01:00:10.374Z,12.29
2018-09-11T01:02:39.613Z,12.23
2018-09-11T01:05:08.893Z,12.09
2018-09-11T01:07:38.483Z,12.13
2018-09-11T01:10:09.512Z,12.14
2018-09-11T01:12:39.064Z,12.17
2018-09-11T01:15:09.656Z,12.19
2018-09-11T01:17:39.138Z,12.21
2018-09-11T01:20:08.920Z,12.17
2018-09-11T01:22:38.379Z,12.02
2018-09-11T01:25:07.682Z,12.02
2018-09-11T01:27:36.915Z,11.87
2018-09-11T01:30:06.652Z,11.94
2018-09-11T01:32:35.969Z,12.00
2018-09-11T01:35:05.213Z,11.98
2018-09-11T01:37:34.448Z,11.89
2018-09-11T01:40:03.579Z,11.83
2018-09-11T01:42:32.800Z,11.95
2018-09-11T01:45:02.253Z,11.96
2018-09-11T01:47:31.635Z,12.02
2018-09-11T01:50:00.995Z,12.04
2018-09-11T01:52:30.248Z,12.00
2018-09-11T01:54:59.693Z,11.83
2018-09-11T01:57:28.973Z,11.69
2018-09-11T01:59:58.301Z,11.70
2018-09-11T02:02:27.542Z,11.79
2018-09-11T02:04:57.036Z,11.83
2018-09-11T02:07:26.437Z,11.89
2018-09-11T02:09:55.949Z,11.81
2018-09-11T02:12:25.338Z,11.82
2018-09-11T02:14:54.574Z,11.80
2018-09-11T02:17:24.043Z,11.84
2018-09-11T02:19:53.386Z,11.76
2018-09-11T02:22:22.759Z,11.72
2018-09-11T02:24:51.988Z,11.70
2018-09-11T02:27:21.417Z,11.76
2018-09-11T02:29:50.781Z,11.73
2018-09-11T02:32:20.028Z,11.74
2018-09-11T02:34:49.427Z,11.72
2018-09-11T02:37:18.747Z,11.66
2018-09-11T02:39:48.000Z,11.66
2018-09-11T02:42:17.468Z,11.66
2018-09-11T02:44:46.796Z,11.65
2018-09-11T02:47:16.248Z,11.57
2018-09-11T02:49:45.644Z,11.57
2018-09-11T02:52:15.087Z,11.54
2018-09-11T02:54:44.541Z,11.47
2018-09-11T02:57:13.887Z,11.50
2018-09-11T02:59:43.299Z,11.49
2018-09-11T03:02:12.671Z,11.44
2018-09-11T03:04:41.841Z,11.40
2018-09-11T03:07:11.482Z,11.36
2018-09-11T03:09:40.849Z,11.35
2018-09-11T03:12:10.495Z,11.38
2018-09-11T03:14:39.718Z,11.41
2018-09-11T03:17:11.524Z,11.33
2018-09-11T03:19:40.843Z,11.33
2018-09-11T03:22:10.238Z,11.22
2018-09-11T03:24:39.776Z,11.33
2018-09-11T03:27:09.232Z,11.28
2018-09-11T03:29:38.678Z,11.27
2018-09-11T03:32:08.024Z,11.38
2018-09-11T03:34:37.806Z,11.44
2018-09-11T03:37:07.266Z,11.37
2018-09-11T03:39:36.640Z,11.34
2018-09-11T03:42:06.039Z,11.29
2018-09-11T03:44:35.562Z,11.28
2018-09-11T03:47:05.323Z,11.18
2018-09-11T03:49:34.551Z,11.16
2018-09-11T03:52:04.003Z,11.15
2018-09-11T03:54:33.393Z,11.13
2018-09-11T03:57:02.805Z,11.05
2018-09-11T03:59:32.235Z,10.99
2018-09-11T04:02:01.682Z,11.02
2018-09-11T04:04:31.214Z,10.97
2018-09-11T04:07:00.933Z,11.02
2018-09-11T04:09:30.423Z,10.99
2018-09-11T04:11:59.854Z,11.00
2018-09-11T04:14:29.063Z,11.00
2018-09-11T04:16:58.440Z,11.00
2018-09-11T04:19:27.909Z,11.01
2018-09-11T04:21:57.195Z,11.08
2018-09-11T04:24:26.573Z,10.97
2018-09-11T04:26:55.928Z,11.08
2018-09-11T04:29:25.428Z,10.94
2018-09-11T04:31:54.932Z,10.95
2018-09-11T04:34:24.278Z,10.95
2018-09-11T04:36:53.811Z,10.88
2018-09-11T04:39:23.091Z,10.90
2018-09-11T04:41:52.447Z,10.80
2018-09-11T04:44:21.777Z,10.85
2018-09-11T04:46:51.075Z,10.82
2018-09-11T04:49:20.381Z,10.83
2018-09-11T04:51:49.612Z,10.81
2018-09-11T04:54:19.049Z,10.80
2018-09-11T04:56:48.554Z,10.94
2018-09-11T04:59:18.032Z,11.01
2018-09-11T05:01:47.495Z,10.95
2018-09-11T05:04:16.872Z,10.87
2018-09-11T05:06:46.409Z,10.91
2018-09-11T05:09:15.621Z,10.96
2018-09-11T05:11:44.855Z,10.93
2018-09-11T05:14:14.532Z,10.82
2018-09-11T05:16:43.947Z,11.00
2018-09-11T05:19:13.207Z,11.01
2018-09-11T05:21:43.246Z,11.35
2018-09-11T05:24:12.583Z,11.44
2018-09-11T05:26:41.979Z,11.64
2018-09-11T05:29:11.118Z,11.70
2018-09-11T05:31:40.612Z,11.75
2018-09-11T05:34:10.116Z,11.92
2018-09-11T05:36:39.646Z,12.06
2018-09-11T05:39:10.189Z,11.93
2018-09-11T05:41:39.605Z,11.93
2018-09-11T05:44:08.941Z,12.04
2018-09-11T05:46:38.284Z,12.00
2018-09-11T05:49:08.683Z,11.97
2018-09-11T05:51:38.566Z,11.93
2018-09-11T05:54:08.369Z,11.94
2018-09-11T05:56:37.667Z,11.88
2018-09-11T05:59:06.889Z,12.02
2018-09-11T06:01:36.220Z,12.06
2018-09-11T06:04:05.498Z,12.29
2018-09-11T06:06:34.863Z,12.21
2018-09-11T06:09:06.904Z,12.27
2018-09-11T06:11:36.500Z,12.33
2018-09-11T06:14:06.024Z,12.53
2018-09-11T06:16:35.539Z,12.63
2018-09-11T06:19:05.124Z,12.97
2018-09-11T06:21:34.818Z,13.34
2018-09-11T06:24:04.350Z,13.58
2018-09-11T06:26:33.681Z,13.76
2018-09-11T06:29:03.674Z,14.03
2018-09-11T06:31:33.245Z,14.09
2018-09-11T06:34:03.120Z,14.27
2018-09-11T06:36:32.371Z,14.42
2018-09-11T06:39:01.744Z,14.78
2018-09-11T06:41:31.299Z,14.92
2018-09-11T06:44:00.709Z,15.05
2018-09-11T06:46:29.995Z,15.20
2018-09-11T06:48:59.314Z,15.45
2018-09-11T06:51:28.723Z,15.71
2018-09-11T06:53:58.047Z,15.73
2018-09-11T06:56:27.419Z,15.83
2018-09-11T06:58:56.714Z,15.35
2018-09-11T07:01:26.046Z,15.16
2018-09-11T07:03:55.267Z,15.17
2018-09-11T07:06:24.559Z,15.37
2018-09-11T07:08:53.931Z,15.39
2018-09-11T07:11:23.234Z,15.57
2018-09-11T07:13:52.733Z,15.92
2018-09-11T07:16:22.152Z,15.81
2018-09-11T07:18:51.531Z,16.22
2018-09-11T07:21:20.824Z,16.19
2018-09-11T07:23:50.770Z,16.24
2018-09-11T07:26:20.101Z,16.55
2018-09-11T07:28:49.543Z,16.58
2018-09-11T07:31:18.842Z,16.55
2018-09-11T07:33:48.150Z,16.65
2018-09-11T07:36:17.487Z,16.99
2018-09-11T07:38:47.778Z,16.84
2018-09-11T07:41:17.131Z,17.25
2018-09-11T07:43:46.468Z,17.50
2018-09-11T07:46:15.904Z,17.60
2018-09-11T07:48:45.148Z,17.46
2018-09-11T07:51:14.427Z,17.80
2018-09-11T07:53:43.783Z,18.13
2018-09-11T07:56:13.115Z,17.89
2018-09-11T07:58:42.325Z,17.89
2018-09-11T08:01:11.640Z,18.31
2018-09-11T08:03:41.072Z,18.28
2018-09-11T08:06:10.540Z,18.66
2018-09-11T08:08:39.909Z,18.50
2018-09-11T08:11:09.350Z,18.47
2018-09-11T08:13:39.062Z,18.69
2018-09-11T08:16:08.382Z,18.33
2018-09-11T08:18:38.105Z,19.07
2018-09-11T08:21:07.659Z,19.27
2018-09-11T08:23:37.652Z,19.29
2018-09-11T08:26:07.426Z,19.54
2018-09-11T08:28:36.884Z,19.03
2018-09-11T08:31:06.148Z,19.28
2018-09-11T08:33:36.427Z,19.67
2018-09-11T08:36:06.616Z,20.04
2018-09-11T08:38:35.857Z,20.11
2018-09-11T08:41:05.504Z,19.77
2018-09-11T08:43:34.744Z,20.48
2018-09-11T08:46:03.945Z,20.74
2018-09-11T08:48:33.658Z,20.97
2018-09-11T08:51:03.093Z,20.65
2018-09-11T08:53:32.486Z,21.09
2018-09-11T08:56:01.837Z,21.86
2018-09-11T08:58:31.451Z,21.46
2018-09-11T09:01:00.846Z,21.30
2018-09-11T09:03:30.151Z,21.98
2018-09-11T09:06:00.268Z,21.98
2018-09-11T09:08:29.561Z,21.94
2018-09-11T09:10:58.932Z,22.46
2018-09-11T09:13:27.956Z,22.09
2018-09-11T09:15:57.343Z,22.48
2018-09-11T09:18:26.651Z,21.92
2018-09-11T09:20:57.357Z,22.35
2018-09-11T09:23:26.764Z,22.24
2018-09-11T09:25:56.102Z,22.52
2018-09-11T09:28:25.868Z,22.26
2018-09-11T09:30:55.229Z,22.86
2018-09-11T09:33:24.733Z,22.37
2018-09-11T09:35:54.391Z,22.58
2018-09-11T09:38:23.718Z,22.78
2018-09-11T09:40:53.208Z,22.88
2018-09-11T09:43:22.758Z,22.95
2018-09-11T09:45:52.219Z,22.66
2018-09-11T09:48:21.828Z,23.18
2018-09-11T09:50:51.250Z,22.71
2018-09-11T09:53:21.713Z,23.13
2018-09-11T09:55:51.134Z,23.06
2018-09-11T09:58:20.630Z,23.43
2018-09-11T10:00:55.111Z,23.77
2018-09-11T10:03:24.513Z,23.31
2018-09-11T10:05:55.187Z,23.04
2018-09-11T10:08:24.599Z,23.81
2018-09-11T10:10:53.895Z,23.86
2018-09-11T10:13:23.296Z,24.30
2018-09-11T10:15:53.438Z,23.87
2018-09-11T10:18:22.753Z,23.75
2018-09-11T10:20:52.173Z,23.70
2018-09-11T10:23:22.197Z,24.33
2018-09-11T10:25:51.509Z,24.07
2018-09-11T10:28:20.844Z,24.58
2018-09-11T10:30:50.145Z,24.07
2018-09-11T10:33:19.444Z,24.48
2018-09-11T10:35:48.701Z,24.01
2018-09-11T10:38:19.027Z,24.67
2018-09-11T10:40:48.426Z,25.23
2018-09-11T10:43:18.025Z,24.96
2018-09-11T10:45:47.401Z,25.27
2018-09-11T10:48:16.733Z,24.74
2018-09-11T10:50:46.132Z,24.59
2018-09-11T10:53:16.436Z,24.31
2018-09-11T10:55:46.017Z,24.77
2018-09-11T10:58:15.674Z,24.57
2018-09-11T11:00:45.667Z,24.20
2018-09-11T11:03:15.318Z,24.68
2018-09-11T11:05:44.816Z,24.49
2018-09-11T11:08:14.251Z,24.50
2018-09-11T11:10:43.728Z,24.93
2018-09-11T11:13:13.287Z,25.17
2018-09-11T11:15:42.595Z,25.21
2018-09-11T11:18:12.188Z,25.17
2018-09-11T11:20:41.482Z,25.82
2018-09-11T11:23:10.744Z,26.18
2018-09-11T11:25:40.163Z,25.71
2018-09-11T11:28:10.434Z,25.97
2018-09-11T11:30:40.826Z,26.25
2018-09-11T11:33:10.235Z,26.47
2018-09-11T11:35:39.667Z,26.74
2018-09-11T11:38:09.648Z,27.14
2018-09-11T11:40:39.780Z,27.24
2018-09-11T11:43:08.965Z,26.20
2018-09-11T11:45:39.368Z,26.58
2018-09-11T11:48:08.880Z,26.51
2018-09-11T11:50:38.784Z,26.77
2018-09-11T11:53:08.521Z,26.75
2018-09-11T11:55:37.904Z,27.31
2018-09-11T11:58:07.280Z,27.59
2018-09-11T12:00:36.678Z,27.37
2018-09-11T12:03:06.115Z,27.01
2018-09-11T12:05:35.501Z,26.85
2018-09-11T12:08:05.194Z,26.94
2018-09-11T12:10:34.775Z,27.12
2018-09-11T12:13:04.125Z,27.15
2018-09-11T12:15:33.509Z,27.24
2018-09-11T12:18:02.832Z,27.13
2018-09-11T12:20:33.525Z,27.01
2018-09-11T12:23:03.116Z,26.73
2018-09-11T12:25:32.749Z,26.69
2018-09-11T12:28:02.714Z,26.75
2018-09-11T12:30:33.204Z,26.94
2018-09-11T12:33:02.809Z,26.71
2018-09-11T12:35:32.141Z,26.50
2018-09-11T12:38:02.140Z,26.59
2018-09-11T12:40:31.809Z,26.66
2018-09-11T12:43:02.137Z,26.60
2018-09-11T12:45:32.026Z,26.75
2018-09-11T12:48:01.844Z,26.72
2018-09-11T12:50:30.707Z,26.91
2018-09-11T12:53:00.190Z,26.71
2018-09-11T12:55:29.968Z,26.77
2018-09-11T12:57:59.370Z,26.83
2018-09-11T13:00:28.782Z,27.09
2018-09-11T13:02:59.897Z,27.10
2018-09-11T13:05:30.193Z,27.06
2018-09-11T13:07:59.990Z,26.96
2018-09-11T13:10:29.325Z,26.92
2018-09-11T13:12:58.874Z,27.04
2018-09-11T13:15:28.402Z,26.69
2018-09-11T13:17:57.942Z,26.44
2018-09-11T13:20:27.308Z,26.61
2018-09-11T13:22:56.744Z,26.82
2018-09-11T13:25:26.152Z,27.05
2018-09-11T13:27:55.872Z,26.89
2018-09-11T13:30:26.873Z,27.05
2018-09-11T13:32:57.243Z,27.15
2018-09-11T13:35:27.451Z,27.16
2018-09-11T13:37:57.560Z,27.34
2018-09-11T13:40:27.495Z,27.28
2018-09-11T13:42:57.313Z,27.19
2018-09-11T13:45:27.928Z,27.27
2018-09-11T13:47:58.052Z,27.09
2018-09-11T13:50:27.580Z,26.89
2018-09-11T13:52:57.067Z,27.04
2018-09-11T13:55:26.616Z,26.74
2018-09-11T13:57:56.009Z,26.75
2018-09-11T14:00:25.329Z,26.66
2018-09-11T14:02:54.896Z,26.83
2018-09-11T14:05:24.338Z,26.84
2018-09-11T14:07:53.904Z,26.85
2018-09-11T14:10:23.792Z,26.90
2018-09-11T14:12:53.234Z,27.00
2018-09-11T14:15:22.768Z,27.04
2018-09-11T14:17:52.105Z,26.98
2018-09-11T14:20:21.585Z,27.01
2018-09-11T14:22:51.164Z,27.20
2018-09-11T14:25:20.680Z,27.16
2018-09-11T14:27:50.154Z,27.05
2018-09-11T14:30:19.822Z,27.21
2018-09-11T14:32:49.690Z,27.14
2018-09-11T14:35:19.120Z,27.29
2018-09-11T14:37:49.067Z,26.91
2018-09-11T14:40:18.727Z,26.87
2018-09-11T14:42:49.376Z,26.89
2018-09-11T14:45:22.765Z,26.96
2018-09-11T14:47:53.834Z,26.90
2018-09-11T14:50:23.884Z,26.59
2018-09-11T14:52:53.402Z,26.52
2018-09-11T14:55:23.164Z,26.71
2018-09-11T14:57:52.701Z,26.67
2018-09-11T15:00:22.317Z,26.63
2018-09-11T15:02:51.848Z,26.60
2018-09-11T15:05:22.626Z,26.70
2018-09-11T15:07:52.076Z,26.47
2018-09-11T15:10:21.470Z,26.13
2018-09-11T15:12:50.837Z,26.27
2018-09-11T15:15:20.371Z,26.27
2018-09-11T15:17:49.853Z,26.31
2018-09-11T15:20:20.393Z,26.31
2018-09-11T15:22:50.425Z,26.29
2018-09-11T15:25:19.878Z,26.26
2018-09-11T15:27:49.421Z,26.70
2018-09-11T15:30:19.247Z,26.53
2018-09-11T15:32:48.699Z,26.38
2018-09-11T15:35:18.160Z,26.07
2018-09-11T15:37:47.646Z,25.79
2018-09-11T15:40:17.176Z,25.52
2018-09-11T15:42:46.430Z,25.31
2018-09-11T15:45:15.776Z,25.22
2018-09-11T15:47:45.083Z,24.92
2018-09-11T15:50:14.579Z,24.81
2018-09-11T15:52:45.097Z,24.72
2018-09-11T15:55:15.721Z,24.56
2018-09-11T15:57:45.296Z,24.47
2018-09-11T16:00:15.550Z,24.47
2018-09-11T16:02:46.004Z,24.03
2018-09-11T16:05:15.427Z,23.80
2018-09-11T16:07:45.401Z,23.39
2018-09-11T16:10:14.748Z,23.48
2018-09-11T16:12:46.058Z,23.22
2018-09-11T16:15:15.352Z,22.83
2018-09-11T16:17:44.755Z,22.68
2018-09-11T16:20:14.236Z,22.48
2018-09-11T16:22:43.633Z,22.39
2018-09-11T16:25:14.628Z,22.38
2018-09-11T16:27:44.104Z,21.82
2018-09-11T16:30:13.616Z,22.02
2018-09-11T16:32:43.074Z,21.82
2018-09-11T16:35:13.101Z,21.75
2018-09-11T16:37:43.683Z,21.78
2018-09-11T16:40:13.269Z,21.74
2018-09-11T16:42:42.755Z,21.81
2018-09-11T16:45:12.288Z,21.77
2018-09-11T16:47:42.052Z,21.61
2018-09-11T16:50:12.057Z,21.60
2018-09-11T16:52:41.611Z,21.52
2018-09-11T16:55:11.921Z,21.47
2018-09-11T16:57:41.350Z,21.33
2018-09-11T17:00:10.792Z,21.22
2018-09-11T17:02:40.955Z,21.09
2018-09-11T17:05:11.801Z,21.06
2018-09-11T17:07:42.329Z,21.05
2018-09-11T17:10:13.896Z,20.85
2018-09-11T17:12:45.090Z,20.73
2018-09-11T17:15:14.608Z,20.67
2018-09-11T17:17:45.523Z,20.54
2018-09-11T17:20:15.278Z,20.41
2018-09-11T17:22:45.115Z,20.52
2018-09-11T17:25:14.545Z,20.39
2018-09-11T17:27:43.917Z,20.32
2018-09-11T17:30:14.281Z,20.48
2018-09-11T17:32:43.780Z,20.22
2018-09-11T17:35:16.602Z,20.11
2018-09-11T17:37:46.277Z,20.04
2018-09-11T17:40:15.784Z,19.91
2018-09-11T17:42:46.223Z,19.75
2018-09-11T17:45:15.640Z,19.62
2018-09-11T17:47:45.718Z,19.45
2018-09-11T17:50:15.461Z,19.66
2018-09-11T17:52:44.896Z,19.56
2018-09-11T17:55:14.668Z,19.26
2018-09-11T17:57:44.529Z,19.32
2018-09-11T18:00:14.128Z,19.09
2018-09-11T18:02:44.855Z,18.88
2018-09-11T18:05:14.238Z,18.95
2018-09-11T18:07:43.917Z,18.81
2018-09-11T18:10:13.349Z,18.80
2018-09-11T18:12:42.719Z,18.70
2018-09-11T18:15:12.401Z,18.53
2018-09-11T18:17:41.803Z,18.59
2018-09-11T18:20:11.464Z,18.66
2018-09-11T18:22:40.996Z,18.70
2018-09-11T18:25:11.282Z,18.56
2018-09-11T18:27:41.046Z,18.37
2018-09-11T18:30:11.763Z,18.22
2018-09-11T18:32:41.274Z,18.51
2018-09-11T18:35:14.309Z,18.24
2018-09-11T18:37:45.399Z,18.52
2018-09-11T18:40:16.781Z,18.42
2018-09-11T18:42:47.377Z,18.28
2018-09-11T18:45:17.851Z,18.03
2018-09-11T18:47:49.273Z,18.05
2018-09-11T18:50:18.831Z,17.93
2018-09-11T18:52:48.574Z,17.97
2018-09-11T18:55:19.370Z,17.89
2018-09-11T18:57:49.705Z,17.84
2018-09-11T19:00:23.694Z,17.83
2018-09-11T19:02:53.462Z,17.63
2018-09-11T19:05:22.942Z,17.48
2018-09-11T19:07:52.540Z,17.49
2018-09-11T19:10:21.910Z,17.40
2018-09-11T19:12:51.401Z,17.51
2018-09-11T19:15:20.728Z,17.40
2018-09-11T19:17:50.209Z,17.26
2018-09-11T19:20:19.872Z,17.27
2018-09-11T19:22:49.372Z,17.30
2018-09-11T19:25:18.708Z,17.10
2018-09-11T19:27:48.965Z,16.81
2018-09-11T19:30:19.457Z,16.82
2018-09-11T19:32:49.572Z,16.98
2018-09-11T19:35:18.909Z,17.10
2018-09-11T19:37:49.244Z,17.05
2018-09-11T19:40:18.744Z,17.02
2018-09-11T19:42:48.187Z,16.94
2018-09-11T19:45:17.695Z,16.80
2018-09-11T19:47:47.155Z,16.76
2018-09-11T19:50:16.755Z,16.62
2018-09-11T19:52:46.153Z,16.74
2018-09-11T19:55:16.102Z,16.64
2018-09-11T19:57:45.587Z,16.57
2018-09-11T20:00:14.858Z,16.71
2018-09-11T20:02:44.323Z,16.55
2018-09-11T20:05:13.671Z,16.44
2018-09-11T20:07:43.006Z,16.63
2018-09-11T20:10:12.330Z,16.40
2018-09-11T20:12:41.951Z,16.44
2018-09-11T20:15:11.185Z,16.21
2018-09-11T20:17:40.695Z,16.10
2018-09-11T20:20:10.799Z,16.08
2018-09-11T20:22:40.196Z,16.05
2018-09-11T20:25:09.604Z,16.05
2018-09-11T20:27:40.820Z,15.93
2018-09-11T20:30:10.808Z,15.79
2018-09-11T20:32:40.338Z,15.77
2018-09-11T20:35:09.842Z,15.88
2018-09-11T20:37:39.057Z,15.86
2018-09-11T20:40:08.727Z,16.10
2018-09-11T20:42:38.640Z,15.76
2018-09-11T20:45:08.394Z,15.59
2018-09-11T20:47:37.663Z,15.75
2018-09-11T20:50:07.248Z,15.75
2018-09-11T20:52:36.551Z,15.64
2018-09-11T20:55:06.302Z,15.66
2018-09-11T20:57:36.215Z,15.66
2018-09-11T21:00:05.844Z,15.62
2018-09-11T21:02:35.797Z,15.66
2018-09-11T21:05:05.006Z,15.41
2018-09-11T21:07:35.362Z,15.29
2018-09-11T21:10:04.753Z,15.15
2018-09-11T21:12:35.500Z,15.30
2018-09-11T21:15:04.867Z,15.33
2018-09-11T21:17:34.472Z,15.38
2018-09-11T21:20:03.912Z,15.25
2018-09-11T21:22:33.381Z,15.14
2018-09-11T21:25:03.144Z,15.16
2018-09-11T21:27:32.467Z,15.27
2018-09-11T21:30:01.798Z,15.05
2018-09-11T21:32:31.907Z,15.03
2018-09-11T21:35:01.399Z,15.00
2018-09-11T21:37:31.668Z,14.93
2018-09-11T21:40:01.067Z,14.89
2018-09-11T21:42:30.682Z,14.86
2018-09-11T21:45:00.152Z,14.81
2018-09-11T21:47:29.621Z,14.85
2018-09-11T21:49:58.876Z,14.72
2018-09-11T21:52:28.218Z,14.71
2018-09-11T21:54:57.669Z,14.56
2018-09-11T21:57:26.999Z,14.73
2018-09-11T21:59:56.248Z,14.64
2018-09-11T22:02:25.911Z,14.59
2018-09-11T22:04:55.292Z,14.56
2018-09-11T22:07:25.606Z,14.49
2018-09-11T22:09:54.900Z,14.60
2018-09-11T22:12:24.249Z,14.28
2018-09-11T22:14:53.547Z,14.26
2018-09-11T22:17:22.844Z,14.42
2018-09-11T22:19:52.158Z,14.33
2018-09-11T22:22:21.511Z,14.22
2018-09-11T22:24:51.061Z,14.17
2018-09-11T22:27:20.507Z,13.99
2018-09-11T22:29:49.793Z,13.97
2018-09-11T22:32:18.978Z,13.84
2018-09-11T22:34:48.418Z,13.84
2018-09-11T22:37:17.698Z,13.93
2018-09-11T22:39:47.022Z,13.71
2018-09-11T22:42:16.460Z,13.73
2018-09-11T22:44:45.806Z,13.75
2018-09-11T22:47:15.134Z,13.65
2018-09-11T22:49:44.664Z,13.74
2018-09-11T22:52:14.170Z,13.60
2018-09-11T22:54:43.663Z,13.58
2018-09-11T22:57:13.165Z,13.59
2018-09-11T22:59:42.830Z,13.62
2018-09-11T23:02:12.167Z,13.62
2018-09-11T23:04:41.551Z,13.59
2018-09-11T23:07:10.839Z,13.65
2018-09-11T23:09:40.306Z,13.58
2018-09-11T23:12:09.734Z,13.67
2018-09-11T23:14:38.892Z,13.79
2018-09-11T23:17:08.414Z,13.72
2018-09-11T23:19:37.827Z,13.55
2018-09-11T23:22:07.162Z,13.41
2018-09-11T23:24:36.503Z,13.41
2018-09-11T23:27:05.899Z,13.51
2018-09-11T23:29:35.264Z,13.36
2018-09-11T23:32:04.686Z,13.36
2018-09-11T23:34:34.954Z,13.57
2018-09-11T23:37:04.220Z,13.45
2018-09-11T23:39:33.582Z,13.25
2018-09-11T23:42:03.796Z,13.21
2018-09-11T23:44:33.374Z,13.27
2018-09-11T23:47:02.963Z,13.23
2018-09-11T23:49:32.477Z,13.11
2018-09-11T23:52:02.016Z,13.01
2018-09-11T23:54:32.034Z,13.02
2018-09-11T23:57:01.334Z,12.95
2018-09-11T23:59:30.592Z,13.01
